Time;durP1;ratioP1;P1;durP2;ratioP2;P2;SDS_P1;SDS_P2;PMS_P1;PMS_P2;Temp;Humidity;BMP_temperature;BMP_pressure;BME280_temperature;BME280_humidity;BME280_pressure;Samples;Min_cycle;Max_cycle;Signal;HPM_P1;HPM_P2
2021/12/11 00:00:08;;;;;;;67.07;28.90;;;;;;;;;;4955891;28;20107;-77
2021/12/11 00:02:34;;;;;;;58.95;28.15;;;;;;;;;;4938696;28;20021;-77
2021/12/11 00:05:01;;;;;;;75.32;29.63;;;;;;;;;;4939987;28;20103;-76
2021/12/11 00:07:29;;;;;;;67.20;29.27;;;;;;;;;;4940630;29;20566;-77
2021/12/11 00:09:58;;;;;;;65.40;28.98;;;;;;;;;;4940063;29;20028;-77
2021/12/11 00:12:26;;;;;;;69.00;30.48;;;;;;;;;;4934482;28;20406;-78
2021/12/11 00:14:55;;;;;;;71.40;30.45;;;;;;;;;;4940637;29;20027;-76
2021/12/11 00:17:22;;;;;;;65.47;27.65;;;;;;;;;;4939151;28;20062;-79
2021/12/11 00:19:48;;;;;;;62.78;26.77;;;;;;;;;;4936084;29;20028;-76
2021/12/11 00:22:17;;;;;;;63.33;29.20;;;;;;;;;;4952228;28;20127;-77
2021/12/11 00:24:43;;;;;;;54.70;26.25;;;;;;;;;;4938653;29;20035;-77
2021/12/11 00:27:14;;;;;;;59.80;27.50;;;;;;;;;;4939304;29;20039;-78
2021/12/11 00:29:40;;;;;;;55.28;26.70;;;;;;;;;;4954851;28;20466;-77
2021/12/11 00:32:10;;;;;;;59.95;27.00;;;;;;;;;;4939104;29;20039;-76
2021/12/11 00:34:43;;;;;;;55.08;24.88;;;;;;;;;;4939918;28;20035;-77
2021/12/11 00:37:10;;;;;;;52.00;24.85;;;;;;;;;;4940487;28;21447;-81
2021/12/11 00:39:44;;;;;;;66.10;27.92;;;;;;;;;;4956641;28;20390;-78
2021/12/11 00:42:12;;;;;;;54.47;25.52;;;;;;;;;;4942488;29;20031;-77
2021/12/11 00:44:42;;;;;;;55.92;26.75;;;;;;;;;;4956205;28;20043;-75
2021/12/11 00:47:10;;;;;;;55.75;25.52;;;;;;;;;;4951689;28;20031;-77
2021/12/11 00:49:36;;;;;;;48.47;24.20;;;;;;;;;;4937482;29;20028;-78
2021/12/11 00:52:02;;;;;;;54.28;25.38;;;;;;;;;;4938107;28;20032;-76
2021/12/11 00:54:28;;;;;;;52.97;24.63;;;;;;;;;;4943873;28;20834;-77
2021/12/11 00:56:55;;;;;;;58.15;27.45;;;;;;;;;;4939850;28;20549;-76
2021/12/11 00:59:21;;;;;;;57.00;26.42;;;;;;;;;;4954939;28;20119;-77
2021/12/11 01:01:52;;;;;;;66.43;30.27;;;;;;;;;;4959114;28;20397;-77
2021/12/11 01:04:21;;;;;;;75.63;32.25;;;;;;;;;;4945325;28;20033;-77
2021/12/11 01:06:52;;;;;;;68.50;31.17;;;;;;;;;;4936328;28;20573;-78
2021/12/11 01:09:23;;;;;;;72.30;29.50;;;;;;;;;;4938988;29;20078;-77
2021/12/11 01:11:52;;;;;;;59.90;28.55;;;;;;;;;;4954758;28;20042;-77
2021/12/11 01:14:24;;;;;;;69.05;31.35;;;;;;;;;;4942114;29;20063;-79
2021/12/11 01:16:53;;;;;;;74.05;31.40;;;;;;;;;;4938160;29;20057;-76
2021/12/11 01:19:21;;;;;;;71.40;29.13;;;;;;;;;;4942673;29;20035;-77
2021/12/11 01:21:59;;;;;;;71.53;31.23;;;;;;;;;;4951648;28;20444;-75
2021/12/11 01:24:41;;;;;;;54.38;27.95;;;;;;;;;;4936715;28;20452;-77
2021/12/11 01:27:08;;;;;;;61.97;26.60;;;;;;;;;;4935551;28;20598;-77
2021/12/11 01:29:34;;;;;;;60.28;28.17;;;;;;;;;;4940306;28;20043;-77
2021/12/11 01:32:01;;;;;;;67.53;29.45;;;;;;;;;;4941702;28;20501;-77
2021/12/11 01:34:28;;;;;;;56.47;26.20;;;;;;;;;;4942888;28;20031;-77
2021/12/11 01:36:54;;;;;;;57.45;27.08;;;;;;;;;;4938718;29;20083;-76
2021/12/11 01:39:26;;;;;;;59.58;25.60;;;;;;;;;;4957620;28;20038;-77
2021/12/11 01:41:54;;;;;;;58.00;26.88;;;;;;;;;;4954943;28;20027;-77
2021/12/11 01:44:31;;;;;;;65.20;28.60;;;;;;;;;;4941174;28;20119;-77
2021/12/11 01:47:16;;;;;;;65.45;28.70;;;;;;;;;;4955280;28;20036;-77
2021/12/11 01:49:44;;;;;;;67.95;29.02;;;;;;;;;;4943453;29;20038;-78
2021/12/11 01:52:10;;;;;;;69.20;28.98;;;;;;;;;;4957778;28;20472;-77
2021/12/11 01:54:39;;;;;;;75.63;29.70;;;;;;;;;;4959475;28;20544;-76
2021/12/11 01:57:10;;;;;;;65.35;29.58;;;;;;;;;;4942717;29;20024;-76
2021/12/11 01:59:40;;;;;;;67.35;30.02;;;;;;;;;;4943806;29;20027;-77
2021/12/11 02:02:29;;;;;;;63.95;28.70;;;;;;;;;;4939626;28;20023;-76
2021/12/11 02:04:55;;;;;;;73.55;31.85;;;;;;;;;;4935376;29;20050;-76
2021/12/11 02:07:27;;;;;;;67.28;30.52;;;;;;;;;;4952677;28;20039;-76
2021/12/11 02:09:57;;;;;;;71.07;30.27;;;;;;;;;;4945204;29;20031;-76
2021/12/11 02:12:28;;;;;;;62.58;27.88;;;;;;;;;;4939640;29;20027;-77
2021/12/11 02:14:55;;;;;;;70.30;28.00;;;;;;;;;;4941106;28;20078;-77
2021/12/11 02:17:24;;;;;;;73.15;29.40;;;;;;;;;;4941394;28;20106;-76
2021/12/11 02:19:53;;;;;;;70.32;30.58;;;;;;;;;;4939946;29;21683;-76
2021/12/11 02:22:24;;;;;;;71.95;32.05;;;;;;;;;;4941703;28;20146;-77
2021/12/11 02:24:52;;;;;;;69.53;30.92;;;;;;;;;;4943960;28;20114;-77
2021/12/11 02:27:21;;;;;;;66.90;30.83;;;;;;;;;;4939657;29;20100;-77
2021/12/11 02:30:09;;;;;;;66.25;27.73;;;;;;;;;;4941411;28;20031;-76
2021/12/11 02:32:41;;;;;;;44.15;23.65;;;;;;;;;;4960210;28;20028;-76
2021/12/11 02:35:11;;;;;;;43.33;23.15;;;;;;;;;;4944502;29;20481;-76
2021/12/11 02:38:07;;;;;;;53.75;23.88;;;;;;;;;;4958404;28;20728;-76
2021/12/11 02:40:46;;;;;;;51.10;23.05;;;;;;;;;;4948420;29;20122;-76
2021/12/11 02:43:21;;;;;;;49.53;24.38;;;;;;;;;;4940688;28;20023;-78
2021/12/11 02:45:51;;;;;;;43.67;23.92;;;;;;;;;;4942150;29;20120;-77
2021/12/11 02:48:20;;;;;;;56.80;26.08;;;;;;;;;;4953154;28;20036;-77
2021/12/11 02:50:51;;;;;;;44.80;22.42;;;;;;;;;;4953317;28;20031;-75
2021/12/11 02:53:21;;;;;;;46.58;24.23;;;;;;;;;;4940032;29;20028;-76
2021/12/11 02:55:50;;;;;;;49.00;23.75;;;;;;;;;;4954840;28;20091;-77
2021/12/11 02:58:19;;;;;;;48.58;23.15;;;;;;;;;;4938505;28;20019;-75
2021/12/11 03:00:48;;;;;;;51.55;24.88;;;;;;;;;;4956681;28;20051;-77
2021/12/11 03:03:15;;;;;;;54.17;25.10;;;;;;;;;;4939413;28;20152;-77
2021/12/11 03:05:49;;;;;;;46.92;24.17;;;;;;;;;;4941681;28;20111;-76
2021/12/11 03:08:17;;;;;;;51.97;24.52;;;;;;;;;;4955046;28;20023;-77
2021/12/11 03:10:45;;;;;;;51.40;24.05;;;;;;;;;;4943311;29;20027;-76
2021/12/11 03:13:12;;;;;;;51.33;24.38;;;;;;;;;;4939976;28;20031;-75
2021/12/11 03:15:38;;;;;;;46.20;25.13;;;;;;;;;;4946289;28;20074;-76
2021/12/11 03:18:06;;;;;;;56.55;24.95;;;;;;;;;;4956422;28;20019;-76
2021/12/11 03:20:33;;;;;;;62.40;25.80;;;;;;;;;;4960415;28;20148;-77
2021/12/11 03:22:59;;;;;;;58.08;26.02;;;;;;;;;;4940656;28;20113;-76
2021/12/11 03:25:27;;;;;;;60.50;27.55;;;;;;;;;;4948287;28;20031;-76
2021/12/11 03:27:53;;;;;;;58.15;27.40;;;;;;;;;;4941290;28;20126;-76
2021/12/11 03:30:22;;;;;;;53.88;26.17;;;;;;;;;;4948973;28;20421;-75
2021/12/11 03:32:53;;;;;;;60.42;28.80;;;;;;;;;;4943835;28;20031;-76
2021/12/11 03:35:19;;;;;;;68.95;28.05;;;;;;;;;;4956215;28;20123;-75
2021/12/11 03:37:45;;;;;;;51.00;26.20;;;;;;;;;;4943241;28;20093;-75
2021/12/11 03:40:12;;;;;;;59.38;27.05;;;;;;;;;;4946065;28;20030;-75
2021/12/11 03:42:40;;;;;;;57.85;26.95;;;;;;;;;;4940098;28;20489;-76
2021/12/11 03:45:09;;;;;;;52.25;27.80;;;;;;;;;;4940641;29;20052;-76
2021/12/11 03:47:37;;;;;;;64.28;29.27;;;;;;;;;;4943241;28;20066;-75
2021/12/11 03:50:04;;;;;;;63.15;29.60;;;;;;;;;;4963425;28;20082;-75
2021/12/11 03:52:30;;;;;;;69.93;33.33;;;;;;;;;;4943864;29;20090;-76
2021/12/11 03:54:56;;;;;;;69.15;31.77;;;;;;;;;;4946245;28;20106;-76
2021/12/11 03:57:24;;;;;;;79.93;34.00;;;;;;;;;;4945020;28;20103;-76
2021/12/11 03:59:52;;;;;;;83.65;34.88;;;;;;;;;;4945968;28;20019;-76
2021/12/11 04:02:20;;;;;;;75.45;35.65;;;;;;;;;;4942490;28;20036;-76
2021/12/11 04:04:48;;;;;;;81.90;35.53;;;;;;;;;;4947872;28;20074;-75
2021/12/11 04:07:16;;;;;;;76.82;33.80;;;;;;;;;;4953657;28;20501;-75
2021/12/11 04:09:43;;;;;;;74.95;33.00;;;;;;;;;;4941638;29;20062;-76
2021/12/11 04:12:10;;;;;;;70.90;33.85;;;;;;;;;;4962873;28;20146;-76
2021/12/11 04:14:38;;;;;;;76.57;32.95;;;;;;;;;;4943916;28;20105;-75
2021/12/11 04:17:07;;;;;;;76.10;32.83;;;;;;;;;;4946314;28;20062;-75
2021/12/11 04:19:33;;;;;;;72.82;32.30;;;;;;;;;;4945720;28;20133;-76
2021/12/11 04:22:01;;;;;;;65.22;31.33;;;;;;;;;;4943708;28;20035;-75
2021/12/11 04:24:29;;;;;;;77.90;34.70;;;;;;;;;;4944654;28;20063;-75
2021/12/11 04:26:55;;;;;;;82.90;34.33;;;;;;;;;;4943315;29;20066;-75
2021/12/11 04:29:22;;;;;;;89.10;37.85;;;;;;;;;;4942225;29;20099;-75
2021/12/11 04:31:48;;;;;;;101.25;40.40;;;;;;;;;;4948864;28;20035;-76
2021/12/11 04:34:16;;;;;;;108.07;42.47;;;;;;;;;;4942475;28;20032;-77
2021/12/11 04:36:47;;;;;;;113.07;43.70;;;;;;;;;;4943099;28;20031;-75
2021/12/11 04:39:15;;;;;;;109.95;42.30;;;;;;;;;;4939375;28;20023;-75
2021/12/11 04:41:50;;;;;;;101.45;41.42;;;;;;;;;;4960423;28;20027;-75
2021/12/11 04:44:22;;;;;;;104.07;41.30;;;;;;;;;;4943873;28;20051;-75
2021/12/11 04:46:48;;;;;;;118.47;42.08;;;;;;;;;;4945957;28;20126;-76
2021/12/11 04:49:24;;;;;;;109.32;42.17;;;;;;;;;;4943019;28;20035;-75
2021/12/11 04:52:03;;;;;;;113.53;43.90;;;;;;;;;;4944860;28;20099;-75
2021/12/11 04:54:51;;;;;;;117.43;44.05;;;;;;;;;;4958547;28;20039;-75
2021/12/11 05:00:45;;;;;;;138.93;48.47;;;;;;;;;;4941455;29;20023;-76
2021/12/11 05:11:12;;;;;;;161.10;52.00;;;;;;;;;;4948101;28;20046;-75
2021/12/11 05:13:38;;;;;;;160.45;50.80;;;;;;;;;;4951442;28;20024;-75
2021/12/11 05:16:10;;;;;;;159.38;51.10;;;;;;;;;;4966280;28;20036;-76
2021/12/11 05:18:37;;;;;;;155.18;51.83;;;;;;;;;;4949572;28;20027;-75
2021/12/11 05:21:05;;;;;;;138.68;49.97;;;;;;;;;;4954342;28;20043;-76
2021/12/11 05:23:31;;;;;;;153.55;48.63;;;;;;;;;;4963213;28;20023;-76
2021/12/11 05:25:57;;;;;;;135.98;47.83;;;;;;;;;;4952453;28;20102;-76
2021/12/11 05:28:24;;;;;;;127.68;45.30;;;;;;;;;;4965380;28;20093;-76
2021/12/11 05:30:52;;;;;;;131.75;47.53;;;;;;;;;;4948950;28;20075;-76
2021/12/11 05:33:19;;;;;;;140.75;47.05;;;;;;;;;;4950131;28;20039;-75
2021/12/11 05:35:46;;;;;;;156.65;49.42;;;;;;;;;;4951004;28;20030;-76
2021/12/11 05:38:13;;;;;;;155.27;51.88;;;;;;;;;;4947355;28;20031;-75
2021/12/11 05:40:41;;;;;;;164.15;55.00;;;;;;;;;;4965534;28;20137;-73
2021/12/11 05:43:07;;;;;;;153.68;53.00;;;;;;;;;;4960540;28;20055;-74
2021/12/11 05:45:34;;;;;;;146.13;50.85;;;;;;;;;;4948332;29;20043;-74
2021/12/11 05:48:00;;;;;;;135.80;50.25;;;;;;;;;;4962458;28;20035;-74
2021/12/11 05:50:31;;;;;;;147.50;49.97;;;;;;;;;;4945130;29;20062;-73
2021/12/11 05:52:58;;;;;;;137.25;50.45;;;;;;;;;;4960513;28;20063;-73
2021/12/11 05:55:25;;;;;;;134.50;49.55;;;;;;;;;;4949905;28;20027;-73
2021/12/11 05:57:54;;;;;;;132.18;47.47;;;;;;;;;;4965249;28;20034;-73
2021/12/11 06:00:37;;;;;;;120.18;45.05;;;;;;;;;;4947215;29;20233;-74
2021/12/11 06:03:05;;;;;;;128.38;46.70;;;;;;;;;;4947185;28;20098;-74
2021/12/11 06:05:31;;;;;;;114.05;43.53;;;;;;;;;;4942196;29;20032;-74
2021/12/11 06:07:57;;;;;;;114.20;43.28;;;;;;;;;;4948742;28;20048;-74
2021/12/11 06:10:24;;;;;;;113.57;41.72;;;;;;;;;;4950773;28;20034;-75
2021/12/11 06:12:52;;;;;;;110.20;41.63;;;;;;;;;;4947994;28;20097;-74
2021/12/11 06:15:18;;;;;;;102.20;40.50;;;;;;;;;;4949383;28;20058;-75
2021/12/11 06:17:46;;;;;;;98.95;39.00;;;;;;;;;;4947857;28;20031;-76
2021/12/11 06:20:14;;;;;;;98.88;40.00;;;;;;;;;;4944505;28;20039;-75
2021/12/11 06:22:41;;;;;;;105.85;37.67;;;;;;;;;;4947150;28;20033;-76
2021/12/11 06:25:09;;;;;;;86.75;34.88;;;;;;;;;;4959505;28;20043;-75
2021/12/11 06:27:35;;;;;;;80.32;31.58;;;;;;;;;;4963306;28;20372;-76
2021/12/11 06:30:01;;;;;;;82.35;32.13;;;;;;;;;;4947808;29;20035;-76
2021/12/11 06:32:28;;;;;;;81.07;30.85;;;;;;;;;;4949811;28;20051;-76
2021/12/11 06:34:54;;;;;;;77.35;29.83;;;;;;;;;;4943317;29;20471;-76
2021/12/11 06:37:21;;;;;;;92.30;36.95;;;;;;;;;;4958659;28;20087;-77
2021/12/11 06:39:47;;;;;;;85.05;34.58;;;;;;;;;;4946598;28;20023;-78
2021/12/11 06:42:14;;;;;;;92.43;34.83;;;;;;;;;;4960976;28;20109;-76
2021/12/11 06:44:40;;;;;;;86.93;37.38;;;;;;;;;;4945561;28;20116;-76
2021/12/11 06:47:09;;;;;;;94.22;40.45;;;;;;;;;;4944334;28;20471;-78
2021/12/11 06:49:36;;;;;;;89.65;39.55;;;;;;;;;;4936100;29;20035;-77
2021/12/11 06:52:04;;;;;;;85.70;39.85;;;;;;;;;;4939111;29;20035;-77
2021/12/11 06:54:30;;;;;;;109.57;43.58;;;;;;;;;;4945928;28;20040;-77
2021/12/11 06:56:56;;;;;;;99.80;39.97;;;;;;;;;;4947696;29;20089;-76
2021/12/11 06:59:22;;;;;;;95.93;40.33;;;;;;;;;;4946581;28;20039;-77
2021/12/11 07:01:48;;;;;;;103.50;43.15;;;;;;;;;;4947214;28;20023;-75
2021/12/11 07:04:14;;;;;;;99.53;41.33;;;;;;;;;;4939993;28;20047;-76
2021/12/11 07:06:42;;;;;;;108.20;42.25;;;;;;;;;;4953695;28;20039;-75
2021/12/11 07:09:12;;;;;;;111.75;43.55;;;;;;;;;;4947942;29;20035;-76
2021/12/11 07:11:40;;;;;;;112.38;43.80;;;;;;;;;;4940326;28;20127;-76
2021/12/11 07:14:07;;;;;;;117.28;45.35;;;;;;;;;;4946938;29;20035;-75
2021/12/11 07:16:33;;;;;;;120.15;46.65;;;;;;;;;;4952021;28;20054;-76
2021/12/11 07:18:59;;;;;;;120.03;46.65;;;;;;;;;;4951368;28;20031;-77
2021/12/11 07:21:25;;;;;;;126.85;45.22;;;;;;;;;;4951454;28;20113;-75
2021/12/11 07:23:52;;;;;;;124.05;45.20;;;;;;;;;;4951691;28;20382;-75
2021/12/11 07:26:28;;;;;;;138.45;44.80;;;;;;;;;;4951373;28;20023;-75
2021/12/11 07:28:55;;;;;;;137.02;46.35;;;;;;;;;;4951938;28;20980;-76
2021/12/11 07:31:22;;;;;;;150.70;46.85;;;;;;;;;;4962494;28;20038;-75
2021/12/11 07:33:48;;;;;;;146.18;48.08;;;;;;;;;;4965543;28;20038;-75
2021/12/11 07:36:15;;;;;;;139.15;45.67;;;;;;;;;;4963711;28;20543;-74
2021/12/11 07:38:41;;;;;;;145.73;47.97;;;;;;;;;;4947949;29;20042;-75
2021/12/11 07:41:10;;;;;;;145.95;48.80;;;;;;;;;;4952079;28;20027;-75
2021/12/11 07:43:37;;;;;;;169.93;51.15;;;;;;;;;;4951473;28;20039;-75
2021/12/11 07:46:05;;;;;;;158.65;47.60;;;;;;;;;;4950609;28;20043;-75
2021/12/11 07:48:31;;;;;;;178.45;50.53;;;;;;;;;;4950400;28;20114;-75
2021/12/11 07:50:57;;;;;;;153.43;49.35;;;;;;;;;;4950187;28;20450;-75
2021/12/11 07:53:24;;;;;;;174.30;48.92;;;;;;;;;;4949812;28;20390;-75
2021/12/11 07:55:51;;;;;;;160.68;50.00;;;;;;;;;;4951121;28;20046;-76
2021/12/11 07:58:17;;;;;;;179.77;53.85;;;;;;;;;;4951450;28;20023;-75
2021/12/11 08:00:44;;;;;;;189.68;56.20;;;;;;;;;;4950548;28;20020;-74
2021/12/11 08:03:11;;;;;;;193.60;54.65;;;;;;;;;;4949750;28;20030;-76
2021/12/11 08:05:38;;;;;;;194.00;57.28;;;;;;;;;;4949932;28;20027;-76
2021/12/11 08:08:06;;;;;;;212.75;57.38;;;;;;;;;;4947015;29;20042;-74
2021/12/11 08:10:33;;;;;;;188.27;55.60;;;;;;;;;;4951205;28;20543;-75
2021/12/11 08:13:00;;;;;;;182.15;53.53;;;;;;;;;;4950253;28;20170;-75
2021/12/11 08:15:26;;;;;;;196.85;56.90;;;;;;;;;;4950078;28;20042;-75
2021/12/11 08:17:54;;;;;;;173.73;54.70;;;;;;;;;;4949207;29;20492;-74
2021/12/11 08:20:22;;;;;;;163.88;55.60;;;;;;;;;;4964269;28;20019;-74
2021/12/11 08:22:48;;;;;;;185.35;56.55;;;;;;;;;;4950900;28;20074;-75
2021/12/11 08:25:14;;;;;;;178.40;56.25;;;;;;;;;;4949483;28;20024;-74
2021/12/11 08:27:41;;;;;;;176.55;56.03;;;;;;;;;;4950354;28;20085;-74
2021/12/11 08:30:07;;;;;;;175.10;53.90;;;;;;;;;;4964316;28;20113;-75
2021/12/11 08:32:35;;;;;;;191.35;59.13;;;;;;;;;;4950655;28;20027;-75
2021/12/11 08:35:01;;;;;;;181.75;58.72;;;;;;;;;;4951054;28;20031;-75
2021/12/11 08:37:29;;;;;;;165.90;56.03;;;;;;;;;;4949563;28;20252;-75
2021/12/11 08:39:55;;;;;;;193.35;54.55;;;;;;;;;;4964134;28;20388;-75
2021/12/11 08:42:23;;;;;;;182.60;53.20;;;;;;;;;;4949234;28;20023;-75
2021/12/11 08:44:58;;;;;;;183.25;54.25;;;;;;;;;;4964961;28;20420;-76
2021/12/11 08:47:25;;;;;;;171.80;50.60;;;;;;;;;;4950198;28;20031;-76
2021/12/11 08:49:52;;;;;;;147.82;48.22;;;;;;;;;;4965049;28;20097;-76
2021/12/11 08:52:25;;;;;;;147.65;51.88;;;;;;;;;;4965611;28;20054;-76
2021/12/11 08:54:52;;;;;;;165.30;52.63;;;;;;;;;;4947120;28;20027;-73
2021/12/11 08:57:22;;;;;;;142.25;48.47;;;;;;;;;;4964421;28;20477;-76
2021/12/11 08:59:49;;;;;;;145.27;49.05;;;;;;;;;;4950707;28;20055;-75
2021/12/11 09:02:24;;;;;;;139.50;49.63;;;;;;;;;;4965114;28;20165;-74
2021/12/11 09:05:01;;;;;;;146.50;49.60;;;;;;;;;;4950276;28;20023;-74
2021/12/11 09:07:32;;;;;;;144.70;49.35;;;;;;;;;;4949923;29;20051;-75
2021/12/11 09:09:58;;;;;;;;;;;;;;;;;;4950906;28;20039;-75
2021/12/11 09:12:27;;;;;;;165.98;48.67;;;;;;;;;;4950413;28;20324;-75
2021/12/11 09:15:22;;;;;;;146.20;48.92;;;;;;;;;;4950421;28;20120;-75
2021/12/11 09:17:59;;;;;;;190.80;53.83;;;;;;;;;;4940151;28;20039;-75
2021/12/11 09:20:28;;;;;;;166.40;52.20;;;;;;;;;;4946868;29;20012;-75
2021/12/11 09:22:56;;;;;;;157.57;53.65;;;;;;;;;;4964927;28;20035;-76
2021/12/11 09:25:26;;;;;;;159.77;54.13;;;;;;;;;;4950192;28;20090;-75
2021/12/11 09:27:57;;;;;;;190.57;55.70;;;;;;;;;;4963909;28;20046;-74
2021/12/11 09:30:29;;;;;;;158.00;53.22;;;;;;;;;;4950500;28;20090;-75
2021/12/11 09:32:57;;;;;;;182.32;58.20;;;;;;;;;;4950283;28;20142;-76
2021/12/11 09:35:27;;;;;;;173.95;56.80;;;;;;;;;;4949718;28;20086;-75
2021/12/11 09:37:55;;;;;;;124.07;40.00;;;;;;;;;;4960123;28;20023;-75
2021/12/11 09:40:39;;;;;;;164.60;55.97;;;;;;;;;;4947860;28;20031;-75
2021/12/11 09:43:05;;;;;;;166.95;52.65;;;;;;;;;;4962361;28;20449;-75
2021/12/11 09:45:35;;;;;;;180.90;53.72;;;;;;;;;;4949098;28;20058;-75
2021/12/11 09:48:06;;;;;;;150.50;51.58;;;;;;;;;;4965230;28;20037;-75
2021/12/11 09:50:41;;;;;;;178.98;56.22;;;;;;;;;;4953233;28;20063;-75
2021/12/11 09:53:07;;;;;;;166.82;56.70;;;;;;;;;;4953344;28;20037;-75
2021/12/11 09:55:37;;;;;;;180.65;58.00;;;;;;;;;;4968895;28;20047;-75
2021/12/11 09:58:05;;;;;;;183.80;58.45;;;;;;;;;;4967580;28;20086;-76
2021/12/11 10:00:43;;;;;;;169.32;57.05;;;;;;;;;;4968203;28;20036;-75
2021/12/11 10:03:09;;;;;;;165.02;57.83;;;;;;;;;;4953331;28;20027;-77
2021/12/11 10:05:44;;;;;;;179.82;58.25;;;;;;;;;;4949247;29;20041;-74
2021/12/11 10:08:30;;;;;;;170.93;58.58;;;;;;;;;;4964382;28;20511;-76
2021/12/11 10:11:12;;;;;;;175.98;58.33;;;;;;;;;;4952913;28;20089;-76
2021/12/11 10:13:43;;;;;;;162.18;55.22;;;;;;;;;;4952995;28;20170;-75
2021/12/11 10:16:10;;;;;;;159.25;58.47;;;;;;;;;;4952907;28;20034;-76
2021/12/11 10:18:36;;;;;;;155.00;55.90;;;;;;;;;;4952753;28;20031;-74
2021/12/11 10:21:08;;;;;;;159.68;58.15;;;;;;;;;;4952796;28;20090;-75
2021/12/11 10:23:35;;;;;;;156.43;57.25;;;;;;;;;;4967653;28;20050;-76
2021/12/11 10:26:02;;;;;;;162.65;58.22;;;;;;;;;;4953101;28;20054;-75
2021/12/11 10:28:29;;;;;;;154.93;57.78;;;;;;;;;;4952235;28;20035;-76
2021/12/11 10:30:58;;;;;;;155.18;57.50;;;;;;;;;;4952749;28;20335;-75
2021/12/11 10:33:27;;;;;;;155.30;58.22;;;;;;;;;;4949205;28;20102;-75
2021/12/11 10:35:56;;;;;;;168.10;61.13;;;;;;;;;;4951845;28;20039;-75
2021/12/11 10:38:22;;;;;;;153.85;60.60;;;;;;;;;;4965720;28;20144;-75
2021/12/11 10:40:50;;;;;;;142.73;58.38;;;;;;;;;;4951098;28;20023;-75
2021/12/11 10:43:19;;;;;;;147.45;59.67;;;;;;;;;;4952968;28;20020;-75
2021/12/11 10:45:46;;;;;;;151.40;57.97;;;;;;;;;;4966614;28;20055;-75
2021/12/11 10:48:15;;;;;;;134.38;54.63;;;;;;;;;;4950166;28;20035;-75
2021/12/11 10:50:44;;;;;;;129.57;55.72;;;;;;;;;;4952451;28;20086;-74
2021/12/11 10:53:11;;;;;;;136.63;54.33;;;;;;;;;;4952878;28;20023;-74
2021/12/11 10:55:41;;;;;;;127.00;53.25;;;;;;;;;;4951850;28;20086;-76
2021/12/11 10:58:13;;;;;;;117.78;53.10;;;;;;;;;;4952115;28;20027;-76
2021/12/11 11:00:44;;;;;;;112.15;50.30;;;;;;;;;;4966080;28;20028;-74
2021/12/11 11:03:10;;;;;;;95.38;45.95;;;;;;;;;;4949185;28;20115;-75
2021/12/11 11:05:37;;;;;;;92.07;45.17;;;;;;;;;;4952026;28;20407;-76
2021/12/11 11:08:04;;;;;;;92.40;43.97;;;;;;;;;;4951899;28;20046;-75
2021/12/11 11:10:33;;;;;;;79.60;39.17;;;;;;;;;;4951701;28;20043;-74
2021/12/11 11:13:00;;;;;;;75.13;39.58;;;;;;;;;;4955817;28;20105;-76
2021/12/11 11:15:27;;;;;;;66.32;33.63;;;;;;;;;;4966675;28;20192;-72
2021/12/11 11:17:54;;;;;;;63.47;32.78;;;;;;;;;;4950374;29;20031;-73
2021/12/11 11:20:28;;;;;;;56.00;30.83;;;;;;;;;;4949090;28;20058;-75
2021/12/11 11:22:55;;;;;;;55.47;31.35;;;;;;;;;;4951899;28;20027;-74
2021/12/11 11:25:23;;;;;;;58.40;30.42;;;;;;;;;;4950754;28;20709;-74
2021/12/11 11:27:54;;;;;;;54.75;29.65;;;;;;;;;;4950743;28;20018;-74
2021/12/11 11:30:21;;;;;;;49.20;27.40;;;;;;;;;;4951591;28;20034;-74
2021/12/11 11:32:47;;;;;;;48.70;26.85;;;;;;;;;;4950387;28;20174;-74
2021/12/11 11:35:18;;;;;;;48.85;25.95;;;;;;;;;;4966393;28;20032;-74
2021/12/11 11:37:44;;;;;;;52.30;27.05;;;;;;;;;;4951410;28;20106;-74
2021/12/11 11:40:14;;;;;;;45.60;25.27;;;;;;;;;;4947905;29;20031;-74
2021/12/11 11:42:40;;;;;;;55.70;26.88;;;;;;;;;;4948229;29;20023;-74
2021/12/11 11:45:09;;;;;;;45.00;27.25;;;;;;;;;;4966421;28;20051;-74
2021/12/11 11:47:35;;;;;;;44.08;26.40;;;;;;;;;;4951311;28;20031;-74
2021/12/11 11:50:02;;;;;;;53.47;27.83;;;;;;;;;;4966343;28;20160;-74
2021/12/11 11:52:28;;;;;;;52.95;28.45;;;;;;;;;;4947938;28;20035;-74
2021/12/11 11:54:56;;;;;;;43.78;26.00;;;;;;;;;;4951706;28;20099;-75
2021/12/11 11:57:30;;;;;;;53.20;27.50;;;;;;;;;;4963393;28;20359;-74
2021/12/11 11:59:58;;;;;;;43.97;23.23;;;;;;;;;;4950447;28;20031;-75
2021/12/11 12:02:25;;;;;;;50.47;25.00;;;;;;;;;;4951908;28;20046;-74
2021/12/11 12:04:53;;;;;;;42.30;24.02;;;;;;;;;;4951386;28;20027;-74
2021/12/11 12:07:25;;;;;;;45.10;24.10;;;;;;;;;;4963337;28;20027;-74
2021/12/11 12:09:52;;;;;;;42.67;23.48;;;;;;;;;;4952097;28;20035;-75
2021/12/11 12:12:22;;;;;;;37.67;23.13;;;;;;;;;;4951767;28;20027;-75
2021/12/11 12:14:48;;;;;;;43.92;23.27;;;;;;;;;;4951629;28;20027;-73
2021/12/11 12:17:18;;;;;;;39.60;21.67;;;;;;;;;;4966220;28;20103;-73
2021/12/11 12:19:44;;;;;;;38.72;21.35;;;;;;;;;;4949603;28;20019;-73
2021/12/11 12:22:12;;;;;;;32.30;19.25;;;;;;;;;;4951353;28;20019;-74
2021/12/11 12:24:39;;;;;;;31.02;17.67;;;;;;;;;;4965968;28;20034;-73
2021/12/11 12:27:07;;;;;;;28.25;16.77;;;;;;;;;;4951148;28;20041;-73
2021/12/11 12:29:34;;;;;;;26.15;14.68;;;;;;;;;;4964463;28;20031;-74
2021/12/11 12:32:02;;;;;;;24.48;14.27;;;;;;;;;;4951422;28;20070;-74
2021/12/11 12:34:29;;;;;;;21.75;12.75;;;;;;;;;;4965440;28;20031;-74
2021/12/11 12:36:56;;;;;;;20.63;12.98;;;;;;;;;;4965442;28;20531;-74
2021/12/11 12:39:24;;;;;;;30.55;14.18;;;;;;;;;;4948818;28;20035;-74
2021/12/11 12:42:15;;;;;;;28.83;13.80;;;;;;;;;;4949951;28;20027;-73
2021/12/11 12:44:41;;;;;;;27.52;14.27;;;;;;;;;;4950097;28;20094;-73
2021/12/11 12:47:10;;;;;;;21.42;13.00;;;;;;;;;;4949599;28;20115;-75
2021/12/11 12:49:39;;;;;;;24.48;13.52;;;;;;;;;;4950330;28;20062;-74
2021/12/11 12:52:11;;;;;;;22.50;13.80;;;;;;;;;;4961440;28;20055;-74
2021/12/11 12:54:38;;;;;;;27.27;13.68;;;;;;;;;;4950648;28;20504;-74
2021/12/11 12:57:31;;;;;;;23.35;13.15;;;;;;;;;;4950270;28;20054;-74
2021/12/11 13:00:05;;;;;;;29.60;15.40;;;;;;;;;;4946515;28;20043;-75
2021/12/11 13:02:32;;;;;;;23.55;13.82;;;;;;;;;;4951375;28;20031;-74
2021/12/11 13:05:06;;;;;;;28.30;15.90;;;;;;;;;;4949677;28;20034;-75
2021/12/11 13:07:32;;;;;;;30.25;16.25;;;;;;;;;;4949354;28;20102;-74
2021/12/11 13:10:02;;;;;;;27.63;16.77;;;;;;;;;;4965548;28;20031;-74
2021/12/11 13:12:33;;;;;;;26.33;15.38;;;;;;;;;;4949826;28;20034;-75
2021/12/11 13:15:01;;;;;;;28.17;15.63;;;;;;;;;;4950665;28;20515;-74
2021/12/11 13:17:32;;;;;;;24.15;13.82;;;;;;;;;;4951038;28;20107;-74
2021/12/11 13:20:02;;;;;;;27.00;13.73;;;;;;;;;;4964809;28;20035;-74
2021/12/11 13:22:30;;;;;;;30.85;12.52;;;;;;;;;;4949850;28;20097;-75
2021/12/11 13:24:58;;;;;;;31.58;12.70;;;;;;;;;;4954307;28;20039;-74
2021/12/11 13:27:25;;;;;;;29.25;11.80;;;;;;;;;;4953346;28;20498;-74
2021/12/11 13:29:54;;;;;;;26.63;11.63;;;;;;;;;;4953757;28;20062;-74
2021/12/11 13:32:25;;;;;;;29.35;11.15;;;;;;;;;;4953938;28;20038;-74
2021/12/11 13:34:54;;;;;;;26.70;10.55;;;;;;;;;;4952618;28;20101;-74
2021/12/11 13:37:22;;;;;;;20.20;6.10;;;;;;;;;;4953253;28;20019;-74
2021/12/11 13:39:49;;;;;;;25.15;6.90;;;;;;;;;;4966175;28;20034;-74
2021/12/11 13:42:19;;;;;;;20.60;6.68;;;;;;;;;;4952947;28;20341;-76
2021/12/11 13:44:46;;;;;;;23.73;6.20;;;;;;;;;;4951154;28;20106;-75
2021/12/11 13:47:15;;;;;;;20.67;5.50;;;;;;;;;;4952819;28;20042;-74
2021/12/11 13:49:41;;;;;;;20.45;6.13;;;;;;;;;;4967736;28;20072;-73
2021/12/11 13:52:07;;;;;;;23.25;5.03;;;;;;;;;;4964606;28;20440;-73
2021/12/11 13:54:35;;;;;;;16.92;4.90;;;;;;;;;;4946384;28;20046;-76
2021/12/11 13:57:05;;;;;;;20.33;3.97;;;;;;;;;;4950029;28;20027;-75
2021/12/11 13:59:31;;;;;;;20.75;4.47;;;;;;;;;;4968420;28;20026;-76
2021/12/11 14:01:58;;;;;;;15.80;3.17;;;;;;;;;;4967782;28;20034;-74
2021/12/11 14:04:25;;;;;;;13.55;2.85;;;;;;;;;;4967723;28;20035;-74
2021/12/11 14:07:03;;;;;;;13.43;2.80;;;;;;;;;;4952865;29;20034;-74
2021/12/11 14:09:34;;;;;;;22.63;4.80;;;;;;;;;;4951709;28;20295;-75
2021/12/11 14:12:00;;;;;;;17.75;3.30;;;;;;;;;;4953149;28;20111;-74
2021/12/11 14:14:26;;;;;;;13.15;2.75;;;;;;;;;;4952921;28;20043;-73
2021/12/11 14:16:52;;;;;;;20.02;3.95;;;;;;;;;;4967574;28;20039;-74
2021/12/11 14:19:19;;;;;;;23.05;3.78;;;;;;;;;;4943837;28;20374;-73
2021/12/11 14:21:45;;;;;;;25.60;3.30;;;;;;;;;;4942824;28;20652;-74
2021/12/11 14:24:12;;;;;;;23.20;4.07;;;;;;;;;;4956017;28;20141;-76
2021/12/11 14:26:41;;;;;;;21.27;3.53;;;;;;;;;;4967284;28;20027;-75
2021/12/11 14:29:08;;;;;;;27.52;5.28;;;;;;;;;;4952878;28;20074;-73
2021/12/11 14:31:36;;;;;;;21.70;4.32;;;;;;;;;;4966362;28;20074;-74
2021/12/11 14:34:03;;;;;;;22.70;4.30;;;;;;;;;;4948259;28;20073;-74